sensor_id;sensor_type;location;lat;lon;timestamp;pressure;altitude;pressure_sealevel;temperature;humidity
5780;BME280;2916;49.798;10.022;2023-04-30T00:00:06;146977.53;;;10.91;83.48
5780;BME280;2916;49.798;10.022;2023-04-30T00:02:34;146973.81;;;10.89;83.59
5780;BME280;2916;49.798;10.022;2023-04-30T00:05:02;146962.66;;;10.85;83.06
5780;BME280;2916;49.798;10.022;2023-04-30T00:07:29;146972.59;;;10.89;83.06
5780;BME280;2916;49.798;10.022;2023-04-30T00:09:57;146965.13;;;10.86;83.33
5780;BME280;2916;49.798;10.022;2023-04-30T00:12:26;146955.19;;;10.81;82.60
5780;BME280;2916;49.798;10.022;2023-04-30T00:14:53;146970.06;;;10.88;82.48
5780;BME280;2916;49.798;10.022;2023-04-30T00:17:21;146956.44;;;10.82;83.13
5780;BME280;2916;49.798;10.022;2023-04-30T00:19:48;146956.44;;;10.82;83.13
5780;BME280;2916;49.798;10.022;2023-04-30T00:22:16;146791.38;;;10.14;83.60
5780;BME280;2916;49.798;10.022;2023-04-30T00:24:43;146945.28;;;10.77;84.41
5780;BME280;2916;49.798;10.022;2023-04-30T00:27:10;146944.03;;;10.77;83.95
5780;BME280;2916;49.798;10.022;2023-04-30T00:29:39;146922.91;;;10.68;84.60
5780;BME280;2916;49.798;10.022;2023-04-30T00:32:07;146951.44;;;10.80;84.60
5780;BME280;2916;49.798;10.022;2023-04-30T00:34:34;146942.75;;;10.76;84.22
5780;BME280;2916;49.798;10.022;2023-04-30T00:37:01;146940.28;;;10.75;84.52
5780;BME280;2916;49.798;10.022;2023-04-30T00:39:28;146904.28;;;10.61;84.47
5780;BME280;2916;49.798;10.022;2023-04-30T00:41:56;146960.16;;;10.84;84.65
5780;BME280;2916;49.798;10.022;2023-04-30T00:44:23;146953.97;;;10.81;84.76
5780;BME280;2916;49.798;10.022;2023-04-30T00:46:52;146946.50;;;10.78;84.12
5780;BME280;2916;49.798;10.022;2023-04-30T00:49:19;146940.28;;;10.75;83.86
5780;BME280;2916;49.798;10.022;2023-04-30T00:52:34;146940.28;;;10.75;84.32
5780;BME280;2916;49.798;10.022;2023-04-30T00:55:19;146944.03;;;10.77;83.71
5780;BME280;2916;49.798;10.022;2023-04-30T00:57:46;146942.75;;;10.76;84.50
5780;BME280;2916;49.798;10.022;2023-04-30T01:00:14;146927.91;;;10.70;84.66
5780;BME280;2916;49.798;10.022;2023-04-30T01:02:43;146932.81;;;10.72;84.70
5780;BME280;2916;49.798;10.022;2023-04-30T01:05:10;146940.28;;;10.75;84.18
5780;BME280;2916;49.798;10.022;2023-04-30T01:07:39;146934.09;;;10.73;84.39
5780;BME280;2916;49.798;10.022;2023-04-30T01:10:10;146926.66;;;10.70;83.73
5780;BME280;2916;49.798;10.022;2023-04-30T01:12:47;146916.72;;;10.66;84.47
5780;BME280;2916;49.798;10.022;2023-04-30T01:15:26;146922.91;;;10.68;83.72
5780;BME280;2916;49.798;10.022;2023-04-30T01:18:04;146926.66;;;10.70;84.76
5780;BME280;2916;49.798;10.022;2023-04-30T01:20:34;146910.50;;;10.63;84.52
5780;BME280;2916;49.798;10.022;2023-04-30T01:23:26;146891.88;;;10.55;84.74
5780;BME280;2916;49.798;10.022;2023-04-30T01:26:10;146910.50;;;10.63;84.98
5780;BME280;2916;49.798;10.022;2023-04-30T01:28:41;146905.56;;;10.61;85.15
5780;BME280;2916;49.798;10.022;2023-04-30T01:31:13;146893.13;;;10.56;85.16
5780;BME280;2916;49.798;10.022;2023-04-30T01:33:41;146904.28;;;10.61;84.79
5780;BME280;2916;49.798;10.022;2023-04-30T01:36:34;146872.03;;;10.47;84.76
5780;BME280;2916;49.798;10.022;2023-04-30T01:39:19;146890.66;;;10.55;84.85
5780;BME280;2916;49.798;10.022;2023-04-30T01:42:04;146880.72;;;10.51;84.98
5780;BME280;2916;49.798;10.022;2023-04-30T01:44:53;146864.59;;;10.44;84.69
5780;BME280;2916;49.798;10.022;2023-04-30T01:47:35;146865.81;;;10.45;84.45
5780;BME280;2916;49.798;10.022;2023-04-30T01:50:16;146870.81;;;10.47;85.47
5780;BME280;2916;49.798;10.022;2023-04-30T01:52:50;146855.91;;;10.41;85.88
5780;BME280;2916;49.798;10.022;2023-04-30T01:55:29;146860.88;;;10.43;86.11
5780;BME280;2916;49.798;10.022;2023-04-30T01:58:04;146873.28;;;10.48;85.33
5780;BME280;2916;49.798;10.022;2023-04-30T02:00:33;146873.28;;;10.48;84.89
5780;BME280;2916;49.798;10.022;2023-04-30T02:03:01;146879.50;;;10.50;85.28
5780;BME280;2916;49.798;10.022;2023-04-30T02:05:28;146873.28;;;10.48;85.26
5780;BME280;2916;49.798;10.022;2023-04-30T02:07:55;146889.41;;;10.54;85.86
5780;BME280;2916;49.798;10.022;2023-04-30T02:10:25;146890.66;;;10.55;86.12
5780;BME280;2916;49.798;10.022;2023-04-30T02:12:52;146880.72;;;10.51;85.71
5780;BME280;2916;49.798;10.022;2023-04-30T02:15:20;146872.03;;;10.47;84.71
5780;BME280;2916;49.798;10.022;2023-04-30T02:17:48;146772.75;;;10.06;85.46
5780;BME280;2916;49.798;10.022;2023-04-30T02:20:16;146865.81;;;10.45;85.33
5780;BME280;2916;49.798;10.022;2023-04-30T02:22:43;146891.88;;;10.55;85.39
5780;BME280;2916;49.798;10.022;2023-04-30T02:25:10;146863.34;;;10.44;85.91
5780;BME280;2916;49.798;10.022;2023-04-30T02:27:39;146863.34;;;10.44;85.96
5780;BME280;2916;49.798;10.022;2023-04-30T02:30:07;146873.28;;;10.48;86.19
5780;BME280;2916;49.798;10.022;2023-04-30T02:32:35;146858.41;;;10.42;85.54
5780;BME280;2916;49.798;10.022;2023-04-30T02:35:04;146860.88;;;10.43;86.01
5780;BME280;2916;49.798;10.022;2023-04-30T02:37:31;146850.97;;;10.39;86.34
5780;BME280;2916;49.798;10.022;2023-04-30T02:39:59;146823.66;;;10.27;86.17
5780;BME280;2916;49.798;10.022;2023-04-30T02:42:26;146860.88;;;10.43;86.22
5780;BME280;2916;49.798;10.022;2023-04-30T02:44:53;146849.72;;;10.38;86.25
5780;BME280;2916;49.798;10.022;2023-04-30T02:47:20;146823.66;;;10.27;86.76
5780;BME280;2916;49.798;10.022;2023-04-30T02:49:47;146821.19;;;10.26;87.52
5780;BME280;2916;49.798;10.022;2023-04-30T02:52:16;146818.66;;;10.25;87.00
5780;BME280;2916;49.798;10.022;2023-04-30T02:54:43;146831.09;;;10.30;86.05
5780;BME280;2916;49.798;10.022;2023-04-30T02:57:10;146843.50;;;10.36;85.79
5780;BME280;2916;49.798;10.022;2023-04-30T02:59:37;146853.44;;;10.40;85.36
5780;BME280;2916;49.798;10.022;2023-04-30T03:02:04;146843.50;;;10.36;85.44
5780;BME280;2916;49.798;10.022;2023-04-30T03:04:32;146829.88;;;10.30;85.73
5780;BME280;2916;49.798;10.022;2023-04-30T03:06:59;146829.88;;;10.30;86.44
5780;BME280;2916;49.798;10.022;2023-04-30T03:09:30;146826.13;;;10.28;86.26
5780;BME280;2916;49.798;10.022;2023-04-30T03:11:57;146816.16;;;10.24;85.74
5780;BME280;2916;49.798;10.022;2023-04-30T03:14:24;146809.97;;;10.22;86.94
5780;BME280;2916;49.798;10.022;2023-04-30T03:16:51;146808.69;;;10.21;86.12
5780;BME280;2916;49.798;10.022;2023-04-30T03:19:18;146812.44;;;10.23;85.88
5780;BME280;2916;49.798;10.022;2023-04-30T03:21:50;146818.66;;;10.25;86.33
5780;BME280;2916;49.798;10.022;2023-04-30T03:24:17;146796.31;;;10.16;86.38
5780;BME280;2916;49.798;10.022;2023-04-30T03:26:46;146757.84;;;10.00;86.36
5780;BME280;2916;49.798;10.022;2023-04-30T03:29:13;146785.16;;;10.12;87.16
5780;BME280;2916;49.798;10.022;2023-04-30T03:31:40;146788.84;;;10.13;87.53
5780;BME280;2916;49.798;10.022;2023-04-30T03:34:07;146793.84;;;10.15;86.49
5780;BME280;2916;49.798;10.022;2023-04-30T03:36:35;146803.75;;;10.19;86.72
5780;BME280;2916;49.798;10.022;2023-04-30T03:39:03;146801.28;;;10.18;85.56
5780;BME280;2916;49.798;10.022;2023-04-30T03:41:30;146788.84;;;10.13;86.94
5780;BME280;2916;49.798;10.022;2023-04-30T03:43:59;146781.44;;;10.10;86.23
5780;BME280;2916;49.798;10.022;2023-04-30T03:46:26;146774.00;;;10.07;86.20
5780;BME280;2916;49.798;10.022;2023-04-30T03:48:53;146771.47;;;10.06;87.64
5780;BME280;2916;49.798;10.022;2023-04-30T03:51:21;146764.06;;;10.03;87.44
5780;BME280;2916;49.798;10.022;2023-04-30T03:53:48;146759.09;;;10.01;87.41
5780;BME280;2916;49.798;10.022;2023-04-30T03:56:15;146766.53;;;10.04;88.00
5780;BME280;2916;49.798;10.022;2023-04-30T03:58:42;146760.31;;;10.01;88.17
5780;BME280;2916;49.798;10.022;2023-04-30T04:01:11;146744.22;;;9.95;88.06
5780;BME280;2916;49.798;10.022;2023-04-30T04:03:38;146766.53;;;10.04;87.90
5780;BME280;2916;49.798;10.022;2023-04-30T04:06:05;146746.69;;;9.96;87.78
5780;BME280;2916;49.798;10.022;2023-04-30T04:08:32;146759.09;;;10.01;87.93
5780;BME280;2916;49.798;10.022;2023-04-30T04:11:01;146733.03;;;9.90;87.66
5780;BME280;2916;49.798;10.022;2023-04-30T04:13:28;146736.78;;;9.92;88.53
5780;BME280;2916;49.798;10.022;2023-04-30T04:15:55;146685.94;;;9.71;88.48
5780;BME280;2916;49.798;10.022;2023-04-30T04:18:23;146731.78;;;9.90;88.13
5780;BME280;2916;49.798;10.022;2023-04-30T04:20:50;146744.22;;;9.95;88.13
5780;BME280;2916;49.798;10.022;2023-04-30T04:23:18;146730.56;;;9.89;87.35
5780;BME280;2916;49.798;10.022;2023-04-30T04:25:45;146739.25;;;9.93;87.88
5780;BME280;2916;49.798;10.022;2023-04-30T04:28:14;146726.84;;;9.88;87.94
5780;BME280;2916;49.798;10.022;2023-04-30T04:30:41;146738.00;;;9.92;88.47
5780;BME280;2916;49.798;10.022;2023-04-30T04:33:08;146726.84;;;9.88;87.78
5780;BME280;2916;49.798;10.022;2023-04-30T04:35:37;146726.84;;;9.88;89.58
5780;BME280;2916;49.798;10.022;2023-04-30T04:38:06;146610.28;;;9.40;88.51
5780;BME280;2916;49.798;10.022;2023-04-30T04:40:34;146739.25;;;9.93;88.74
5780;BME280;2916;49.798;10.022;2023-04-30T04:43:02;146725.63;;;9.87;89.16
5780;BME280;2916;49.798;10.022;2023-04-30T04:45:29;146741.72;;;9.94;89.40
5780;BME280;2916;49.798;10.022;2023-04-30T04:47:57;146755.38;;;9.99;88.26
5780;BME280;2916;49.798;10.022;2023-04-30T04:50:24;146738.00;;;9.92;88.74
5780;BME280;2916;49.798;10.022;2023-04-30T04:52:53;146751.63;;;9.98;88.46
5780;BME280;2916;49.798;10.022;2023-04-30T04:55:20;146719.41;;;9.84;88.76
5780;BME280;2916;49.798;10.022;2023-04-30T04:57:47;146786.38;;;10.12;88.53
5780;BME280;2916;49.798;10.022;2023-04-30T05:00:15;146803.75;;;10.19;87.25
5780;BME280;2916;49.798;10.022;2023-04-30T05:02:43;146808.69;;;10.21;87.57
5780;BME280;2916;49.798;10.022;2023-04-30T05:05:10;146821.19;;;10.26;87.52
5780;BME280;2916;49.798;10.022;2023-04-30T05:07:37;146862.13;;;10.43;86.94
5780;BME280;2916;49.798;10.022;2023-04-30T05:10:07;146865.81;;;10.45;85.53
5780;BME280;2916;49.798;10.022;2023-04-30T05:12:35;146883.19;;;10.52;85.60
5780;BME280;2916;49.798;10.022;2023-04-30T05:15:02;146898.13;;;10.58;86.17
5780;BME280;2916;49.798;10.022;2023-04-30T05:17:31;146951.44;;;10.80;86.14
5780;BME280;2916;49.798;10.022;2023-04-30T05:19:58;146971.31;;;10.88;85.80
5780;BME280;2916;49.798;10.022;2023-04-30T05:22:25;146947.75;;;10.78;86.08
5780;BME280;2916;49.798;10.022;2023-04-30T05:24:53;146946.50;;;10.78;85.62
5780;BME280;2916;49.798;10.022;2023-04-30T05:27:22;146947.75;;;10.78;85.02
5780;BME280;2916;49.798;10.022;2023-04-30T05:29:49;146963.91;;;10.85;85.64
5780;BME280;2916;49.798;10.022;2023-04-30T05:32:16;146937.81;;;10.74;84.86
5780;BME280;2916;49.798;10.022;2023-04-30T05:34:43;146936.59;;;10.74;85.21
5780;BME280;2916;49.798;10.022;2023-04-30T05:37:10;146947.75;;;10.78;84.08
5780;BME280;2916;49.798;10.022;2023-04-30T05:39:39;146927.91;;;10.70;83.83
5780;BME280;2916;49.798;10.022;2023-04-30T05:42:06;146944.03;;;10.77;84.23
5780;BME280;2916;49.798;10.022;2023-04-30T05:44:35;146972.59;;;10.89;83.48
5780;BME280;2916;49.798;10.022;2023-04-30T05:47:02;147017.25;;;11.07;83.86
5780;BME280;2916;49.798;10.022;2023-04-30T05:49:29;147022.22;;;11.09;82.40
5780;BME280;2916;49.798;10.022;2023-04-30T05:51:56;147066.88;;;11.27;82.38
5780;BME280;2916;49.798;10.022;2023-04-30T05:54:24;147081.81;;;11.34;81.97
5780;BME280;2916;49.798;10.022;2023-04-30T05:56:51;147201.00;;;11.83;81.55
5780;BME280;2916;49.798;10.022;2023-04-30T05:59:18;147493.06;;;13.02;79.51
5780;BME280;2916;49.798;10.022;2023-04-30T06:01:47;147567.72;;;13.33;76.81
5780;BME280;2916;49.798;10.022;2023-04-30T06:04:14;147777.91;;;14.19;73.52
5780;BME280;2916;49.798;10.022;2023-04-30T06:06:42;147862.56;;;14.54;71.68
5780;BME280;2916;49.798;10.022;2023-04-30T06:09:09;147733.09;;;14.01;69.07
5780;BME280;2916;49.798;10.022;2023-04-30T06:11:36;147665.94;;;13.73;72.46
5780;BME280;2916;49.798;10.022;2023-04-30T06:14:05;147745.53;;;14.06;70.97
5780;BME280;2916;49.798;10.022;2023-04-30T06:16:32;147687.06;;;13.82;70.39
5780;BME280;2916;49.798;10.022;2023-04-30T06:19:01;147641.03;;;13.63;70.79
5780;BME280;2916;49.798;10.022;2023-04-30T06:21:28;147622.41;;;13.56;69.60
5780;BME280;2916;49.798;10.022;2023-04-30T06:23:55;147760.47;;;14.12;69.59
5780;BME280;2916;49.798;10.022;2023-04-30T06:26:22;147761.72;;;14.13;68.04
5780;BME280;2916;49.798;10.022;2023-04-30T06:28:49;147756.72;;;14.11;68.48
5780;BME280;2916;49.798;10.022;2023-04-30T06:31:16;147677.13;;;13.78;69.54
5780;BME280;2916;49.798;10.022;2023-04-30T06:33:44;147651.00;;;13.67;69.80
5780;BME280;2916;49.798;10.022;2023-04-30T06:36:12;147621.16;;;13.55;70.36
5780;BME280;2916;49.798;10.022;2023-04-30T06:38:39;147489.34;;;13.01;71.33
5780;BME280;2916;49.798;10.022;2023-04-30T06:41:07;147668.41;;;13.74;71.72
5780;BME280;2916;49.798;10.022;2023-04-30T06:43:34;147449.53;;;12.85;70.97
5780;BME280;2916;49.798;10.022;2023-04-30T06:46:02;147641.03;;;13.63;70.42
5780;BME280;2916;49.798;10.022;2023-04-30T06:48:29;147827.66;;;14.40;67.69
5780;BME280;2916;49.798;10.022;2023-04-30T06:50:57;147699.53;;;13.87;67.14
5780;BME280;2916;49.798;10.022;2023-04-30T06:53:25;147694.53;;;13.85;67.48
5780;BME280;2916;49.798;10.022;2023-04-30T06:55:53;147827.66;;;14.40;65.77
5780;BME280;2916;49.798;10.022;2023-04-30T06:58:21;148260.97;;;16.17;65.96
5780;BME280;2916;49.798;10.022;2023-04-30T07:00:48;148495.31;;;17.13;60.58
5780;BME280;2916;49.798;10.022;2023-04-30T07:03:16;148592.53;;;17.53;58.94
5780;BME280;2916;49.798;10.022;2023-04-30T07:05:43;148844.47;;;18.56;57.63
5780;BME280;2916;49.798;10.022;2023-04-30T07:08:10;148417.97;;;16.82;57.40
5780;BME280;2916;49.798;10.022;2023-04-30T07:10:39;148809.53;;;18.42;56.53
5780;BME280;2916;49.798;10.022;2023-04-30T07:13:07;148803.31;;;18.39;57.21
5780;BME280;2916;49.798;10.022;2023-04-30T07:15:34;148501.50;;;17.16;57.14
5780;BME280;2916;49.798;10.022;2023-04-30T07:18:01;149009.22;;;19.24;56.24
5780;BME280;2916;49.798;10.022;2023-04-30T07:20:29;149227.75;;;20.13;54.31
5780;BME280;2916;49.798;10.022;2023-04-30T07:22:56;148834.50;;;18.52;52.91
5780;BME280;2916;49.798;10.022;2023-04-30T07:25:23;149082.88;;;19.54;54.64
5780;BME280;2916;49.798;10.022;2023-04-30T07:27:54;148948.09;;;18.99;52.08
5780;BME280;2916;49.798;10.022;2023-04-30T07:30:22;148639.91;;;17.73;55.36
5780;BME280;2916;49.798;10.022;2023-04-30T07:32:49;148183.75;;;15.86;58.25
5780;BME280;2916;49.798;10.022;2023-04-30T07:35:16;148727.25;;;18.08;56.94
5780;BME280;2916;49.798;10.022;2023-04-30T07:37:44;149020.44;;;19.28;53.77
5780;BME280;2916;49.798;10.022;2023-04-30T07:40:11;148899.44;;;18.79;53.96
5780;BME280;2916;49.798;10.022;2023-04-30T07:42:39;148389.28;;;16.70;56.53
5780;BME280;2916;49.798;10.022;2023-04-30T07:45:09;148622.44;;;17.65;54.08
5780;BME280;2916;49.798;10.022;2023-04-30T07:47:37;148974.25;;;19.09;55.49
5780;BME280;2916;49.798;10.022;2023-04-30T07:50:06;149076.63;;;19.51;51.36
5780;BME280;2916;49.798;10.022;2023-04-30T07:52:33;149303.94;;;20.44;49.63
5780;BME280;2916;49.798;10.022;2023-04-30T07:55:00;149471.38;;;21.13;49.74
5780;BME280;2916;49.798;10.022;2023-04-30T07:57:28;149355.19;;;20.65;48.72
5780;BME280;2916;49.798;10.022;2023-04-30T07:59:55;148784.63;;;18.32;52.24
5780;BME280;2916;49.798;10.022;2023-04-30T08:02:24;148839.47;;;18.54;53.01
5780;BME280;2916;49.798;10.022;2023-04-30T08:04:51;148835.75;;;18.53;52.53
5780;BME280;2916;49.798;10.022;2023-04-30T08:07:18;148784.63;;;18.32;54.99
5780;BME280;2916;49.798;10.022;2023-04-30T08:09:47;149045.44;;;19.38;51.54
5780;BME280;2916;49.798;10.022;2023-04-30T08:12:15;149346.44;;;20.62;50.05
5780;BME280;2916;49.798;10.022;2023-04-30T08:14:42;148855.69;;;18.61;50.62
5780;BME280;2916;49.798;10.022;2023-04-30T08:17:10;148939.34;;;18.95;55.18
5780;BME280;2916;49.798;10.022;2023-04-30T08:19:38;149296.44;;;20.41;49.81
5780;BME280;2916;49.798;10.022;2023-04-30T08:22:05;149209.03;;;20.05;50.12
5780;BME280;2916;49.798;10.022;2023-04-30T08:24:32;149406.38;;;20.86;49.61
5780;BME280;2916;49.798;10.022;2023-04-30T08:27:00;149665.13;;;21.92;47.65
5780;BME280;2916;49.798;10.022;2023-04-30T08:29:28;149696.34;;;22.04;46.53
5780;BME280;2916;49.798;10.022;2023-04-30T08:32:01;149826.47;;;22.58;46.17
5780;BME280;2916;49.798;10.022;2023-04-30T08:34:30;149276.47;;;20.33;48.27
5780;BME280;2916;49.798;10.022;2023-04-30T08:36:59;149386.41;;;20.78;47.83
5780;BME280;2916;49.798;10.022;2023-04-30T08:39:26;148966.81;;;19.06;48.03
5780;BME280;2916;49.798;10.022;2023-04-30T08:41:56;149086.59;;;19.55;48.83
5780;BME280;2916;49.798;10.022;2023-04-30T08:44:27;149571.34;;;21.53;46.72
5780;BME280;2916;49.798;10.022;2023-04-30T08:46:56;149225.22;;;20.12;43.64
5780;BME280;2916;49.798;10.022;2023-04-30T08:49:24;149301.41;;;20.43;46.42
5780;BME280;2916;49.798;10.022;2023-04-30T08:51:52;149661.38;;;21.90;44.62
5780;BME280;2916;49.798;10.022;2023-04-30T08:54:23;149843.97;;;22.65;43.77
5780;BME280;2916;49.798;10.022;2023-04-30T08:56:52;149313.94;;;20.48;46.27
5780;BME280;2916;49.798;10.022;2023-04-30T08:59:19;149343.94;;;20.61;45.19
5780;BME280;2916;49.798;10.022;2023-04-30T09:01:46;149406.38;;;20.86;43.49
5780;BME280;2916;49.798;10.022;2023-04-30T09:04:13;149121.63;;;19.70;44.49
5780;BME280;2916;49.798;10.022;2023-04-30T09:06:42;148934.34;;;18.93;47.16
5780;BME280;2916;49.798;10.022;2023-04-30T09:09:11;148829.50;;;18.50;47.56
5780;BME280;2916;49.798;10.022;2023-04-30T09:11:41;148780.84;;;18.30;47.99
5780;BME280;2916;49.798;10.022;2023-04-30T09:14:09;149278.94;;;20.34;47.47
5780;BME280;2916;49.798;10.022;2023-04-30T09:16:47;149204.00;;;20.03;44.22
5780;BME280;2916;49.798;10.022;2023-04-30T09:19:26;148798.31;;;18.37;47.44
5780;BME280;2916;49.798;10.022;2023-04-30T09:24:45;149199.03;;;20.01;48.58
5780;BME280;2916;49.798;10.022;2023-04-30T09:27:17;149426.38;;;20.94;46.33
5780;BME280;2916;49.798;10.022;2023-04-30T09:29:45;149516.38;;;21.31;45.11
5780;BME280;2916;49.798;10.022;2023-04-30T09:32:13;149217.78;;;20.09;45.68
5780;BME280;2916;49.798;10.022;2023-04-30T09:34:40;149072.91;;;19.50;45.46
5780;BME280;2916;49.798;10.022;2023-04-30T09:37:09;149307.66;;;20.46;43.88
5780;BME280;2916;49.798;10.022;2023-04-30T09:39:47;149473.84;;;21.14;44.98
5780;BME280;2916;49.798;10.022;2023-04-30T09:42:17;149618.84;;;21.73;43.65
5780;BME280;2916;49.798;10.022;2023-04-30T09:44:45;149537.63;;;21.40;45.23
5780;BME280;2916;49.798;10.022;2023-04-30T09:47:15;149593.88;;;21.63;42.57
5780;BME280;2916;49.798;10.022;2023-04-30T09:49:46;149807.69;;;22.50;42.39
5780;BME280;2916;49.798;10.022;2023-04-30T09:52:17;149796.44;;;22.45;40.77
5780;BME280;2916;49.798;10.022;2023-04-30T09:54:46;149199.03;;;20.01;44.42
5780;BME280;2916;49.798;10.022;2023-04-30T09:57:20;149368.91;;;20.71;42.69
5780;BME280;2916;49.798;10.022;2023-04-30T09:59:52;149416.38;;;20.90;44.59
5780;BME280;2916;49.798;10.022;2023-04-30T10:02:21;149471.38;;;21.13;41.64
5780;BME280;2916;49.798;10.022;2023-04-30T10:04:54;149663.88;;;21.91;42.48
5780;BME280;2916;49.798;10.022;2023-04-30T10:07:35;149603.88;;;21.67;41.41
5780;BME280;2916;49.798;10.022;2023-04-30T10:10:09;149396.38;;;20.82;39.69
5780;BME280;2916;49.798;10.022;2023-04-30T10:12:46;149471.38;;;21.13;42.20
5780;BME280;2916;49.798;10.022;2023-04-30T10:15:19;149341.47;;;20.59;42.49
5780;BME280;2916;49.798;10.022;2023-04-30T10:17:50;149572.66;;;21.54;40.26
5780;BME280;2916;49.798;10.022;2023-04-30T10:20:22;149748.94;;;22.26;39.87
5780;BME280;2916;49.798;10.022;2023-04-30T10:22:52;149727.69;;;22.17;38.63
5780;BME280;2916;49.798;10.022;2023-04-30T10:25:19;149653.88;;;21.87;40.96
5780;BME280;2916;49.798;10.022;2023-04-30T10:27:50;149836.47;;;22.62;40.75
5780;BME280;2916;49.798;10.022;2023-04-30T10:30:17;149721.44;;;22.15;40.64
5780;BME280;2916;49.798;10.022;2023-04-30T10:33:05;149835.22;;;22.61;38.74
5780;BME280;2916;49.798;10.022;2023-04-30T10:35:46;149811.44;;;22.51;38.97
5780;BME280;2916;49.798;10.022;2023-04-30T10:38:21;149793.97;;;22.44;39.24
5780;BME280;2916;49.798;10.022;2023-04-30T10:40:50;149750.19;;;22.26;38.28
5780;BME280;2916;49.798;10.022;2023-04-30T10:43:23;149666.34;;;21.92;39.75
5780;BME280;2916;49.798;10.022;2023-04-30T10:45:51;149353.94;;;20.65;39.11
5780;BME280;2916;49.798;10.022;2023-04-30T10:48:22;149351.44;;;20.64;40.24
5780;BME280;2916;49.798;10.022;2023-04-30T10:50:54;149353.94;;;20.65;40.65
5780;BME280;2916;49.798;10.022;2023-04-30T10:53:23;149245.25;;;20.20;41.66
5780;BME280;2916;49.798;10.022;2023-04-30T10:55:57;149433.88;;;20.97;40.93
5780;BME280;2916;49.798;10.022;2023-04-30T10:58:33;149356.44;;;20.66;39.67
5780;BME280;2916;49.798;10.022;2023-04-30T11:01:03;149162.81;;;19.86;39.58
5780;BME280;2916;49.798;10.022;2023-04-30T11:03:35;149045.44;;;19.38;40.86
5780;BME280;2916;49.798;10.022;2023-04-30T11:06:08;149185.28;;;19.96;41.35
5780;BME280;2916;49.798;10.022;2023-04-30T11:08:41;149204.00;;;20.03;41.81
5780;BME280;2916;49.798;10.022;2023-04-30T11:11:10;149270.19;;;20.30;42.39
5780;BME280;2916;49.798;10.022;2023-04-30T11:13:44;149220.25;;;20.10;41.82
5780;BME280;2916;49.798;10.022;2023-04-30T11:16:12;149298.91;;;20.42;39.92
5780;BME280;2916;49.798;10.022;2023-04-30T11:18:45;149046.69;;;19.39;42.41
5780;BME280;2916;49.798;10.022;2023-04-30T11:21:13;149221.50;;;20.10;42.44
5780;BME280;2916;49.798;10.022;2023-04-30T11:23:42;149223.97;;;20.11;43.17
5780;BME280;2916;49.798;10.022;2023-04-30T11:26:10;149226.50;;;20.13;40.49
5780;BME280;2916;49.798;10.022;2023-04-30T11:28:37;149106.63;;;19.64;40.49
5780;BME280;2916;49.798;10.022;2023-04-30T11:31:06;148966.81;;;19.06;41.46
5780;BME280;2916;49.798;10.022;2023-04-30T11:33:33;149358.91;;;20.67;42.22
5780;BME280;2916;49.798;10.022;2023-04-30T11:36:01;149565.13;;;21.51;41.92
5780;BME280;2916;49.798;10.022;2023-04-30T11:38:33;148981.75;;;19.12;41.98
5780;BME280;2916;49.798;10.022;2023-04-30T11:41:01;149046.69;;;19.39;42.26
5780;BME280;2916;49.798;10.022;2023-04-30T11:43:30;149145.31;;;19.79;40.81
5780;BME280;2916;49.798;10.022;2023-04-30T11:46:15;149120.38;;;19.69;42.52
5780;BME280;2916;49.798;10.022;2023-04-30T11:48:46;149401.41;;;20.84;41.88
5780;BME280;2916;49.798;10.022;2023-04-30T11:51:15;149161.56;;;19.86;41.16
5780;BME280;2916;49.798;10.022;2023-04-30T11:53:45;149016.72;;;19.27;42.29
5780;BME280;2916;49.798;10.022;2023-04-30T11:56:12;149233.97;;;20.16;42.53
5780;BME280;2916;49.798;10.022;2023-04-30T11:58:39;149458.88;;;21.07;41.03
5780;BME280;2916;49.798;10.022;2023-04-30T12:01:07;149175.28;;;19.92;41.27
5780;BME280;2916;49.798;10.022;2023-04-30T12:03:42;149087.84;;;19.56;41.31
5780;BME280;2916;49.798;10.022;2023-04-30T12:06:10;149386.41;;;20.78;41.19
5780;BME280;2916;49.798;10.022;2023-04-30T12:08:41;149416.38;;;20.90;40.63
5780;BME280;2916;49.798;10.022;2023-04-30T12:11:19;149501.34;;;21.25;40.50
5780;BME280;2916;49.798;10.022;2023-04-30T12:13:52;149189.03;;;19.97;41.14
5780;BME280;2916;49.798;10.022;2023-04-30T12:16:19;149079.09;;;19.52;40.87
5780;BME280;2916;49.798;10.022;2023-04-30T12:18:48;149268.94;;;20.30;40.82
5780;BME280;2916;49.798;10.022;2023-04-30T12:21:17;148999.25;;;19.20;42.34
5780;BME280;2916;49.798;10.022;2023-04-30T12:23:45;149171.56;;;19.90;43.34
5780;BME280;2916;49.798;10.022;2023-04-30T12:26:12;149237.75;;;20.17;41.94
5780;BME280;2916;49.798;10.022;2023-04-30T12:28:39;149071.66;;;19.49;41.50
5780;BME280;2916;49.798;10.022;2023-04-30T12:31:07;149041.66;;;19.37;43.23
5780;BME280;2916;49.798;10.022;2023-04-30T12:33:35;149343.94;;;20.61;42.94
5780;BME280;2916;49.798;10.022;2023-04-30T12:36:04;149462.59;;;21.09;41.10
5780;BME280;2916;49.798;10.022;2023-04-30T12:38:35;149487.63;;;21.19;44.02
5780;BME280;2916;49.798;10.022;2023-04-30T12:41:04;149235.25;;;20.16;41.84
5780;BME280;2916;49.798;10.022;2023-04-30T12:43:31;149375.16;;;20.73;42.55
5780;BME280;2916;49.798;10.022;2023-04-30T12:45:58;149328.94;;;20.54;40.79
5780;BME280;2916;49.798;10.022;2023-04-30T12:48:25;149428.91;;;20.95;41.10
5780;BME280;2916;49.798;10.022;2023-04-30T12:50:54;149536.41;;;21.39;41.39
5780;BME280;2916;49.798;10.022;2023-04-30T12:53:24;149172.81;;;19.91;42.74
5780;BME280;2916;49.798;10.022;2023-04-30T12:56:10;149052.94;;;19.42;40.89
5780;BME280;2916;49.798;10.022;2023-04-30T12:58:40;149072.91;;;19.50;41.32
5780;BME280;2916;49.798;10.022;2023-04-30T13:01:10;149283.97;;;20.36;41.23
5780;BME280;2916;49.798;10.022;2023-04-30T13:03:38;149223.97;;;20.11;40.78
5780;BME280;2916;49.798;10.022;2023-04-30T13:06:06;149232.72;;;20.15;40.82
5780;BME280;2916;49.798;10.022;2023-04-30T13:08:36;149367.66;;;20.70;41.32
5780;BME280;2916;49.798;10.022;2023-04-30T13:11:04;149382.66;;;20.76;41.98
5780;BME280;2916;49.798;10.022;2023-04-30T13:13:31;149356.44;;;20.66;40.84